createdAt,value
2023-03-17T00:39:36.096Z,95075.00
2023-03-17T00:40:36.130Z,95075.00
2023-03-17T00:41:36.118Z,95073.00
2023-03-17T00:42:36.128Z,95073.00
2023-03-17T00:43:36.165Z,95073.00
2023-03-17T00:44:36.125Z,95073.00
2023-03-17T00:45:36.180Z,95077.00
2023-03-17T00:46:36.346Z,95077.00
2023-03-17T00:47:36.194Z,95075.00
2023-03-17T00:48:36.193Z,95073.00
2023-03-17T00:49:36.205Z,95069.00
2023-03-17T00:50:36.202Z,95071.00
2023-03-17T01:57:37.535Z,95049.00
2023-03-17T01:58:37.571Z,95053.00
2023-03-17T01:59:37.538Z,95051.00
2023-03-17T02:00:37.563Z,95053.00
2023-03-17T02:01:37.588Z,95051.00
2023-03-17T02:02:37.545Z,95047.00
2023-03-17T02:03:37.585Z,95047.00
2023-03-17T02:04:37.678Z,95047.00
2023-03-17T02:05:37.584Z,95045.00
2023-03-17T02:06:47.411Z,95045.00
2023-03-17T02:07:38.587Z,95037.00
2023-03-17T02:08:37.551Z,95037.00
2023-03-17T02:09:37.538Z,95037.00
2023-03-17T02:10:37.543Z,95037.00
2023-03-17T02:11:37.515Z,95033.00
2023-03-17T02:12:37.473Z,95033.00
2023-03-17T02:13:37.565Z,95028.00
2023-03-17T02:14:37.470Z,95028.00
2023-03-17T02:15:37.464Z,95032.00
2023-03-17T02:16:37.479Z,95028.00
2023-03-17T02:17:37.388Z,95028.00
2023-03-17T02:18:37.369Z,95032.00
2023-03-17T02:19:37.350Z,95026.00
2023-03-17T03:14:38.460Z,95018.00
2023-03-17T03:15:38.546Z,95022.00
2023-03-17T03:16:38.537Z,95024.00
2023-03-17T03:17:38.541Z,95022.00
2023-03-17T03:18:38.543Z,95024.00
2023-03-17T03:19:38.564Z,95016.00
2023-03-17T03:20:38.560Z,95014.00
2023-03-17T03:21:38.602Z,95016.00
2023-03-17T03:22:38.640Z,95016.00
2023-03-17T03:23:38.655Z,95018.00
2023-03-17T03:24:38.709Z,95022.00
2023-03-17T03:25:38.702Z,95022.00
2023-03-17T03:26:38.725Z,95022.00
2023-03-17T03:27:38.763Z,95020.00
2023-03-17T03:28:38.805Z,95022.00
2023-03-17T03:29:38.795Z,95020.00
2023-03-17T03:30:38.841Z,95024.00
2023-03-17T03:31:38.852Z,95024.00
2023-03-17T03:32:38.972Z,95026.00
2023-03-17T03:33:38.895Z,95033.00
2023-03-17T03:34:38.941Z,95035.00
2023-03-17T03:35:38.996Z,95037.00
2023-03-17T03:36:39.022Z,95037.00
2023-03-17T03:37:39.025Z,95039.00
2023-03-17T03:38:39.066Z,95035.00
2023-03-17T03:39:39.084Z,95033.00
2023-03-17T03:40:39.087Z,95026.00
2023-03-17T03:41:39.116Z,95022.00
2023-03-17T03:42:39.134Z,95016.00
2023-03-17T03:43:39.158Z,95020.00
2023-03-17T03:44:39.145Z,95026.00
2023-03-17T03:45:39.180Z,95026.00
2023-03-17T03:46:39.310Z,95028.00
2023-03-17T03:47:39.242Z,95033.00
2023-03-17T03:48:39.291Z,95037.00
2023-03-17T03:49:39.272Z,95037.00
2023-03-17T03:50:39.321Z,95035.00
2023-03-17T03:51:39.353Z,95039.00
2023-03-17T03:52:39.369Z,95039.00
2023-03-17T03:53:39.387Z,95035.00
2023-03-17T03:54:39.411Z,95035.00
2023-03-17T03:55:39.456Z,95026.00
2023-03-17T03:56:39.512Z,95018.00
2023-03-17T03:57:39.521Z,95016.00
2023-03-17T03:58:39.551Z,95020.00
2023-03-17T03:59:39.551Z,95018.00
2023-03-17T04:00:39.581Z,95022.00
2023-03-17T04:01:39.620Z,95022.00
2023-03-17T04:02:39.645Z,95022.00
2023-03-17T04:03:39.638Z,95020.00
2023-03-17T04:04:39.698Z,95014.00
2023-03-17T04:05:39.644Z,95016.00
2023-03-17T04:06:39.713Z,95014.00
2023-03-17T04:07:39.702Z,95014.00
2023-03-17T04:08:39.742Z,95012.00
2023-03-17T04:09:39.764Z,95008.00
2023-03-17T04:10:39.786Z,95014.00
2023-03-17T04:11:39.842Z,95018.00
2023-03-17T04:12:39.832Z,95024.00
2023-03-17T04:13:39.828Z,95026.00
2023-03-17T04:14:39.884Z,95024.00
2023-03-17T04:15:39.889Z,95024.00
2023-03-17T04:16:42.858Z,95026.00
2023-03-17T04:17:39.898Z,95024.00
2023-03-17T04:18:39.926Z,95020.00
2023-03-17T04:19:39.839Z,95014.00
2023-03-17T04:20:39.804Z,95016.00
2023-03-17T04:21:39.794Z,95010.00
2023-03-17T04:22:39.724Z,95006.00
2023-03-17T04:23:39.726Z,95006.00
2023-03-17T04:24:39.679Z,94996.00
2023-03-17T04:25:39.641Z,95002.00
2023-03-17T04:26:39.646Z,95004.00
2023-03-17T04:27:39.593Z,95006.00
2023-03-17T04:28:39.559Z,95002.00
2023-03-17T04:29:39.536Z,95004.00
2023-03-17T04:30:39.549Z,95002.00
2023-03-17T04:31:39.486Z,95000.00
2023-03-17T04:32:39.486Z,94994.00
2023-03-17T04:33:39.463Z,94990.00
2023-03-17T04:34:39.426Z,94986.00
2023-03-17T04:35:39.413Z,94986.00
2023-03-17T04:36:39.383Z,94990.00
2023-03-17T04:37:39.345Z,94994.00
2023-03-17T04:38:39.342Z,94996.00
2023-03-17T04:39:39.302Z,95000.00
2023-03-17T04:40:39.277Z,95002.00
2023-03-17T04:41:39.254Z,95002.00
2023-03-17T04:42:39.208Z,95002.00
2023-03-17T04:43:39.194Z,94998.00
2023-03-17T04:44:39.157Z,94998.00
2023-03-17T04:45:39.187Z,94994.00
2023-03-17T04:46:39.121Z,94994.00
2023-03-17T04:47:39.083Z,94994.00
2023-03-17T04:48:39.050Z,94994.00
2023-03-17T04:49:39.050Z,94992.00
2023-03-17T04:50:38.978Z,94990.00
2023-03-17T04:51:38.969Z,94988.00
2023-03-17T04:52:38.929Z,94983.00
2023-03-17T04:53:38.941Z,94983.00
2023-03-17T04:54:38.883Z,94983.00
2023-03-17T04:55:38.902Z,94985.00
2023-03-17T04:56:38.813Z,94988.00
2023-03-17T04:57:38.807Z,94992.00
2023-03-17T04:58:38.772Z,94994.00
2023-03-17T04:59:38.787Z,94992.00
2023-03-17T05:00:38.844Z,94992.00
2023-03-17T05:01:39.364Z,94992.00
2023-03-17T05:02:38.965Z,94994.00
2023-03-17T05:03:38.880Z,94994.00
2023-03-17T05:04:38.906Z,94990.00
2023-03-17T05:05:38.934Z,94990.00
2023-03-17T05:06:38.981Z,94988.00
2023-03-17T05:07:39.037Z,94988.00
2023-03-17T05:08:39.044Z,94986.00
2023-03-17T05:09:39.028Z,94988.00
2023-03-17T05:10:39.089Z,94986.00
2023-03-17T05:11:39.108Z,94985.00
2023-03-17T05:12:39.163Z,94986.00
2023-03-17T05:13:39.181Z,94983.00
2023-03-17T05:14:39.200Z,94986.00
2023-03-17T05:15:39.204Z,94986.00
2023-03-17T05:16:39.266Z,94986.00
2023-03-17T05:17:39.266Z,94990.00
2023-03-17T05:18:39.311Z,94992.00
2023-03-17T05:19:39.333Z,94992.00
2023-03-17T05:20:39.363Z,94992.00
2023-03-17T05:21:39.383Z,94994.00
2023-03-17T05:22:39.387Z,94992.00
2023-03-17T05:23:39.411Z,94994.00
2023-03-17T05:24:39.414Z,94992.00
2023-03-17T05:25:39.461Z,94992.00
2023-03-17T05:26:39.490Z,94992.00
2023-03-17T05:27:39.533Z,94990.00
2023-03-17T05:28:39.549Z,94990.00
2023-03-17T05:29:39.588Z,94990.00
2023-03-17T05:30:39.666Z,94990.00
2023-03-17T05:31:39.667Z,94990.00
2023-03-17T05:32:39.694Z,94990.00
2023-03-17T05:33:39.687Z,94988.00
2023-03-17T05:34:39.762Z,94990.00
2023-03-17T05:35:39.777Z,94992.00
2023-03-17T05:36:39.794Z,94990.00
2023-03-17T05:37:39.823Z,94992.00
2023-03-17T05:38:39.847Z,94994.00
2023-03-17T05:39:39.891Z,94994.00
2023-03-17T05:40:39.911Z,94998.00
2023-03-17T05:41:39.933Z,94998.00
2023-03-17T05:42:39.980Z,95000.00
2023-03-17T05:43:39.994Z,94996.00
2023-03-17T05:44:40.025Z,94996.00
2023-03-17T05:45:40.063Z,94996.00
2023-03-17T05:46:40.043Z,94988.00
2023-03-17T05:47:40.117Z,94988.00
2023-03-17T05:48:40.135Z,94992.00
2023-03-17T05:49:40.136Z,94994.00
2023-03-17T05:50:40.181Z,94992.00
2023-03-17T05:51:40.198Z,94992.00
2023-03-17T05:52:40.211Z,94994.00
2023-03-17T05:53:40.329Z,94994.00
2023-03-17T05:54:40.268Z,94996.00
2023-03-17T05:55:40.305Z,94994.00
2023-03-17T05:56:40.322Z,94994.00
2023-03-17T05:57:40.371Z,94992.00
2023-03-17T05:58:40.405Z,94990.00
2023-03-17T05:59:40.371Z,94986.00
2023-03-17T06:00:47.379Z,94985.00
2023-03-17T06:01:40.372Z,94988.00
2023-03-17T06:02:40.410Z,94985.00
2023-03-17T06:03:40.388Z,94983.00
2023-03-17T06:04:40.323Z,94983.00
2023-03-17T06:05:40.273Z,94985.00
2023-03-17T06:06:40.259Z,94986.00
2023-03-17T06:07:51.725Z,94983.00
2023-03-17T06:08:41.199Z,94983.00
2023-03-17T06:09:40.193Z,94986.00
2023-03-17T06:10:40.150Z,94986.00
2023-03-17T06:11:40.091Z,94986.00
2023-03-17T06:12:40.110Z,94986.00
2023-03-17T06:13:40.063Z,94986.00
2023-03-17T06:14:40.025Z,94985.00
2023-03-17T06:15:40.139Z,94988.00
2023-03-17T06:16:40.040Z,94988.00
2023-03-17T06:17:40.019Z,94990.00
2023-03-17T06:18:39.968Z,94990.00
2023-03-17T06:19:39.946Z,94988.00
2023-03-17T06:20:39.999Z,94986.00
2023-03-17T06:21:40.019Z,94986.00
2023-03-17T06:22:51.681Z,94986.00
2023-03-17T06:23:41.006Z,94988.00
2023-03-17T06:24:39.979Z,94985.00
2023-03-17T06:25:39.953Z,94988.00
2023-03-17T06:26:39.931Z,94988.00
2023-03-17T06:27:39.891Z,94988.00
2023-03-17T06:28:39.872Z,94992.00
2023-03-17T06:29:39.865Z,94992.00
2023-03-17T06:30:40.902Z,94990.00
2023-03-17T06:31:39.913Z,94988.00
2023-03-17T06:32:39.811Z,94986.00
2023-03-17T06:33:39.786Z,94985.00
2023-03-17T06:34:39.782Z,94983.00
2023-03-17T06:35:39.899Z,94981.00
2023-03-17T06:36:39.852Z,94983.00
2023-03-17T06:37:39.869Z,94985.00
2023-03-17T06:38:39.906Z,94985.00
2023-03-17T06:39:39.920Z,94986.00
2023-03-17T06:40:39.971Z,94988.00
2023-03-17T06:41:40.253Z,94988.00
2023-03-17T06:42:40.121Z,94990.00
2023-03-17T06:43:40.070Z,94988.00
2023-03-17T06:44:40.103Z,94985.00
2023-03-17T06:45:47.162Z,94985.00
2023-03-17T06:46:40.177Z,94979.00
2023-03-17T06:47:40.249Z,94977.00
2023-03-17T06:48:40.105Z,94975.00
2023-03-17T06:49:40.087Z,94975.00
2023-03-17T06:50:40.072Z,94973.00
2023-03-17T06:51:40.047Z,94973.00
2023-03-17T06:52:40.036Z,94969.00
2023-03-17T06:53:40.016Z,94973.00
2023-03-17T06:54:40.012Z,94975.00
2023-03-17T06:55:40.044Z,94975.00
2023-03-17T06:56:39.985Z,94979.00
2023-03-17T06:57:39.994Z,94977.00
2023-03-17T06:58:39.993Z,94973.00
2023-03-17T06:59:39.984Z,94977.00
2023-03-17T07:00:39.929Z,94975.00
2023-03-17T07:01:39.966Z,94975.00
2023-03-17T07:02:39.897Z,94973.00
2023-03-17T07:03:39.916Z,94977.00
2023-03-17T07:04:39.958Z,94975.00
2023-03-17T07:05:39.880Z,94977.00
2023-03-17T07:06:39.846Z,94975.00
2023-03-17T07:07:40.255Z,94971.00
2023-03-17T07:08:39.796Z,94971.00
2023-03-17T07:09:39.795Z,94973.00
2023-03-17T07:10:39.802Z,94977.00
2023-03-17T07:11:39.784Z,94979.00
2023-03-17T07:12:39.748Z,94977.00
2023-03-17T07:13:39.806Z,94977.00
2023-03-17T07:14:39.825Z,94975.00
2023-03-17T07:15:39.858Z,94969.00
2023-03-17T07:16:39.903Z,94971.00
2023-03-17T07:17:40.259Z,94969.00
2023-03-17T07:18:39.927Z,94967.00
2023-03-17T07:19:39.972Z,94971.00
2023-03-17T07:20:39.974Z,94973.00
2023-03-17T07:21:40.051Z,94973.00
2023-03-17T07:22:40.058Z,94973.00
2023-03-17T07:23:40.089Z,94969.00
2023-03-17T07:24:40.101Z,94965.00
2023-03-17T07:25:40.126Z,94965.00
2023-03-17T07:26:40.301Z,94963.00
2023-03-17T07:27:40.229Z,94965.00
2023-03-17T07:28:40.278Z,94971.00
2023-03-17T07:29:40.277Z,94961.00
2023-03-17T07:30:40.315Z,94967.00
2023-03-17T07:31:41.212Z,94967.00
2023-03-17T07:32:40.445Z,94969.00
2023-03-17T07:33:40.408Z,94971.00
2023-03-17T07:34:40.438Z,94973.00
2023-03-17T07:35:40.477Z,94973.00
2023-03-17T07:36:40.609Z,94973.00
2023-03-17T07:37:40.772Z,94971.00
2023-03-17T07:38:40.601Z,94971.00
2023-03-17T07:39:40.626Z,94973.00
2023-03-17T07:40:40.614Z,94971.00
2023-03-17T07:41:40.641Z,94969.00
2023-03-17T07:42:40.782Z,94967.00
2023-03-17T07:43:40.719Z,94969.00
2023-03-17T07:44:40.781Z,94973.00
2023-03-17T07:45:41.092Z,94973.00
2023-03-17T07:46:40.821Z,94967.00
2023-03-17T07:47:40.807Z,94965.00
2023-03-17T07:48:41.057Z,94963.00
2023-03-17T07:49:42.324Z,94967.00
2023-03-17T07:50:40.957Z,94957.00
2023-03-17T07:51:40.948Z,94959.00
2023-03-17T07:52:40.976Z,94959.00
2023-03-17T07:53:41.040Z,94955.00
2023-03-17T07:54:43.014Z,94955.00
2023-03-17T07:55:41.094Z,94957.00
2023-03-17T07:56:41.127Z,94951.00
2023-03-17T07:57:41.259Z,94953.00
2023-03-17T07:58:41.222Z,94949.00
2023-03-17T07:59:41.239Z,94951.00
2023-03-17T08:00:41.298Z,94951.00
2023-03-17T08:01:41.498Z,94951.00
2023-03-17T08:02:41.437Z,94953.00
2023-03-17T08:03:41.910Z,94953.00
2023-03-17T08:05:41.348Z,94955.00
2023-03-17T08:06:41.355Z,94949.00
2023-03-17T08:07:41.409Z,94949.00
2023-03-17T08:08:41.456Z,94943.00
2023-03-17T08:09:41.424Z,94943.00
2023-03-17T08:10:41.418Z,94943.00
2023-03-17T08:11:41.470Z,94938.00
2023-03-17T08:12:41.485Z,94941.00
2023-03-17T08:13:41.651Z,94939.00
2023-03-17T08:14:41.563Z,94938.00
2023-03-17T08:15:41.550Z,94934.00
2023-03-17T08:16:41.706Z,94934.00
2023-03-17T08:17:41.790Z,94932.00
2023-03-17T08:19:41.754Z,94930.00
2023-03-17T08:20:41.766Z,94932.00
2023-03-17T08:21:41.716Z,94928.00
2023-03-17T08:22:41.807Z,94930.00
2023-03-17T08:23:42.279Z,94926.00
2023-03-17T08:24:41.832Z,94926.00
2023-03-17T08:25:41.880Z,94924.00
2023-03-17T08:26:41.892Z,94926.00
2023-03-17T08:27:41.974Z,94922.00
2023-03-17T08:28:42.183Z,94924.00
2023-03-17T08:29:42.140Z,94920.00
2023-03-17T08:30:42.154Z,94920.00
2023-03-17T08:31:43.586Z,94916.00
2023-03-17T08:32:42.390Z,94916.00
2023-03-17T08:33:42.381Z,94918.00
2023-03-17T08:34:42.253Z,94920.00
2023-03-17T08:35:42.327Z,94916.00
2023-03-17T08:36:42.370Z,94920.00
2023-03-17T08:37:42.783Z,94922.00
2023-03-17T08:38:42.377Z,94920.00
2023-03-17T08:39:42.399Z,94916.00
2023-03-17T08:40:42.432Z,94910.00
2023-03-17T08:41:42.438Z,94908.00
2023-03-17T08:42:42.783Z,94902.00
2023-03-17T08:43:42.491Z,94900.00
2023-03-17T08:44:44.087Z,94898.00
2023-03-17T08:45:42.578Z,94892.00
2023-03-17T08:46:42.575Z,94885.00
2023-03-17T08:47:42.537Z,94881.00
2023-03-17T08:48:42.585Z,94877.00
2023-03-17T08:49:42.580Z,94879.00
2023-03-17T08:50:42.584Z,94875.00
2023-03-17T08:51:42.584Z,94877.00
2023-03-17T08:52:42.583Z,94871.00
2023-03-17T08:53:42.787Z,94871.00
2023-03-17T08:54:42.641Z,94869.00
2023-03-17T08:55:42.622Z,94867.00
2023-03-17T08:56:42.664Z,94867.00
2023-03-17T08:57:42.680Z,94871.00
2023-03-17T08:58:42.767Z,94869.00
2023-03-17T08:59:42.784Z,94863.00
2023-03-17T09:00:42.773Z,94865.00
2023-03-17T09:01:42.909Z,94861.00
2023-03-17T09:02:42.993Z,94859.00
2023-03-17T09:03:42.941Z,94859.00
2023-03-17T09:04:42.981Z,94859.00
2023-03-17T09:05:43.011Z,94861.00
2023-03-17T09:07:01.186Z,94855.00
2023-03-17T09:07:44.108Z,94851.00
2023-03-17T09:08:43.137Z,94861.00
2023-03-17T09:09:42.993Z,94857.00
2023-03-17T09:10:44.413Z,94851.00
2023-03-17T09:11:42.957Z,94847.00
2023-03-17T09:12:42.962Z,94847.00
2023-03-17T09:13:42.920Z,94845.00
2023-03-17T09:14:44.496Z,94845.00
2023-03-17T09:15:42.906Z,94845.00
2023-03-17T09:16:42.855Z,94841.00
2023-03-17T09:17:42.807Z,94838.00
2023-03-17T09:18:43.004Z,94834.00
2023-03-17T09:20:42.787Z,94834.00
2023-03-17T09:23:42.887Z,94828.00
2023-03-17T09:24:42.890Z,94830.00
2023-03-17T09:25:42.916Z,94820.00
2023-03-17T09:33:43.338Z,94808.00
2023-03-17T09:34:43.094Z,94804.00
2023-03-17T09:35:43.136Z,94804.00
2023-03-17T09:36:43.153Z,94800.00
2023-03-17T09:37:43.197Z,94794.00
2023-03-17T09:38:43.380Z,94798.00
2023-03-17T09:39:43.191Z,94798.00
2023-03-17T09:40:43.156Z,94800.00
2023-03-17T09:41:43.157Z,94798.00
2023-03-17T09:42:43.163Z,94798.00
2023-03-17T09:43:43.193Z,94798.00
2023-03-17T09:45:43.809Z,94798.00
2023-03-17T09:46:43.284Z,94794.00
2023-03-17T09:47:43.261Z,94794.00
2023-03-17T09:48:43.290Z,94798.00
2023-03-17T09:49:43.297Z,94796.00
2023-03-17T09:50:43.291Z,94796.00
2023-03-17T09:51:43.291Z,94796.00
2023-03-17T09:52:43.293Z,94794.00
2023-03-17T09:53:43.362Z,94796.00
2023-03-17T09:54:43.345Z,94796.00
2023-03-17T09:55:43.408Z,94796.00
2023-03-17T09:56:43.371Z,94796.00
2023-03-17T09:57:43.462Z,94792.00
2023-03-17T09:58:43.454Z,94789.00
2023-03-17T09:59:43.542Z,94787.00
2023-03-17T10:00:43.549Z,94783.00
2023-03-17T10:01:43.652Z,94785.00
2023-03-17T10:02:43.609Z,94779.00
2023-03-17T10:03:43.823Z,94779.00
2023-03-17T10:04:43.612Z,94775.00
2023-03-17T10:05:43.592Z,94773.00
2023-03-17T10:06:43.702Z,94771.00
2023-03-17T10:07:43.628Z,94771.00
2023-03-17T10:08:43.645Z,94771.00
2023-03-17T10:09:43.714Z,94767.00
2023-03-17T10:10:43.930Z,94767.00
2023-03-17T10:11:43.668Z,94765.00
2023-03-17T10:12:43.725Z,94763.00
2023-03-17T10:13:43.723Z,94767.00
2023-03-17T10:14:43.702Z,94761.00
2023-03-17T10:15:43.736Z,94765.00
2023-03-17T10:16:43.710Z,94759.00
2023-03-17T10:17:43.757Z,94753.00
2023-03-17T10:18:43.764Z,94751.00
2023-03-17T10:19:43.775Z,94749.00
2023-03-17T10:20:43.789Z,94751.00
2023-03-17T10:21:43.822Z,94747.00
2023-03-17T10:22:43.828Z,94747.00
2023-03-17T10:23:43.908Z,94745.00
2023-03-17T10:24:43.909Z,94742.00
2023-03-17T10:25:43.955Z,94742.00
2023-03-17T10:26:43.956Z,94740.00
2023-03-17T10:27:43.977Z,94740.00
2023-03-17T10:28:44.001Z,94738.00
2023-03-17T10:29:44.631Z,94740.00
2023-03-17T10:30:44.091Z,94734.00
2023-03-17T10:31:44.134Z,94730.00
2023-03-17T10:32:44.199Z,94734.00
2023-03-17T10:33:44.192Z,94728.00
2023-03-17T10:34:44.286Z,94728.00
2023-03-17T10:35:44.278Z,94724.00
2023-03-17T10:36:44.288Z,94724.00
2023-03-17T10:37:44.336Z,94722.00
2023-03-17T10:38:44.987Z,94722.00
2023-03-17T10:39:44.416Z,94718.00
2023-03-17T10:40:44.461Z,94716.00
2023-03-17T10:41:44.527Z,94714.00
2023-03-17T10:42:44.761Z,94710.00
2023-03-17T10:43:44.598Z,94714.00
2023-03-17T10:44:44.834Z,94712.00
2023-03-17T10:45:45.351Z,94722.00
2023-03-17T10:46:44.762Z,94710.00
2023-03-17T10:47:44.713Z,94706.00
2023-03-17T10:48:44.783Z,94698.00
2023-03-17T10:49:45.334Z,94702.00
2023-03-17T10:50:44.862Z,94702.00
2023-03-17T10:51:44.953Z,94702.00
2023-03-17T10:52:45.001Z,94697.00
2023-03-17T10:53:45.101Z,94706.00
2023-03-17T10:54:45.321Z,94693.00
2023-03-17T10:55:45.134Z,94683.00
2023-03-17T10:56:45.196Z,94675.00
2023-03-17T10:57:45.215Z,94681.00
2023-03-17T10:58:45.311Z,94673.00
2023-03-17T10:59:45.348Z,94679.00
2023-03-17T11:00:45.346Z,94677.00
2023-03-17T11:01:45.382Z,94683.00
2023-03-17T11:02:45.433Z,94685.00
2023-03-17T11:03:45.602Z,94671.00
2023-03-17T11:04:45.545Z,94673.00
2023-03-17T11:05:45.574Z,94671.00
2023-03-17T11:06:45.660Z,94673.00
2023-03-17T11:07:45.719Z,94679.00
2023-03-17T11:08:45.728Z,94675.00
2023-03-17T11:09:45.788Z,94675.00
2023-03-17T11:10:45.813Z,94669.00
2023-03-17T11:11:45.860Z,94671.00
2023-03-17T11:12:45.820Z,94669.00
2023-03-17T11:13:45.868Z,94675.00
2023-03-17T11:14:46.393Z,94671.00
2023-03-17T11:15:45.890Z,94669.00
2023-03-17T11:16:45.972Z,94661.00
2023-03-17T11:17:45.902Z,94657.00
2023-03-17T11:18:45.909Z,94655.00
2023-03-17T11:19:45.927Z,94661.00
2023-03-17T11:20:45.918Z,94657.00
2023-03-17T11:21:45.978Z,94649.00
2023-03-17T11:22:45.984Z,94651.00
2023-03-17T11:23:46.045Z,94647.00
2023-03-17T11:24:46.047Z,94643.00
2023-03-17T11:25:46.055Z,94647.00
2023-03-17T11:26:46.077Z,94645.00
2023-03-17T11:27:46.184Z,94640.00
2023-03-17T11:28:46.126Z,94640.00
2023-03-17T11:29:46.159Z,94638.00
2023-03-17T13:03:48.909Z,94508.00
2023-03-17T13:29:49.494Z,94471.00
2023-03-17T13:57:48.492Z,94444.00
2023-03-17T13:58:48.503Z,94449.00
2023-03-17T13:59:48.476Z,94451.00
2023-03-17T14:00:49.103Z,94442.00
2023-03-17T14:01:48.512Z,94451.00
2023-03-17T14:02:48.548Z,94436.00
2023-03-17T14:03:48.572Z,94440.00
2023-03-17T14:04:48.570Z,94442.00
2023-03-17T14:05:48.593Z,94426.00
2023-03-17T14:06:48.591Z,94432.00
2023-03-17T14:07:48.582Z,94438.00
2023-03-17T14:08:48.594Z,94432.00
2023-03-17T14:09:48.617Z,94453.00
2023-03-17T14:10:48.647Z,94442.00
2023-03-17T14:11:48.637Z,94420.00
2023-03-17T14:12:51.079Z,94428.00
2023-03-17T14:13:48.697Z,94424.00
2023-03-17T14:14:48.752Z,94440.00
2023-03-17T14:15:48.757Z,94442.00
2023-03-17T14:16:48.765Z,94446.00
2023-03-17T14:17:48.766Z,94434.00
2023-03-17T14:18:48.748Z,94440.00
2023-03-17T14:19:48.773Z,94432.00
2023-03-17T14:20:48.781Z,94428.00
2023-03-17T14:21:48.839Z,94430.00
2023-03-17T14:22:48.794Z,94428.00
2023-03-17T14:23:48.818Z,94434.00
2023-03-17T14:24:48.765Z,94432.00
2023-03-17T14:25:48.816Z,94418.00
2023-03-17T14:26:48.830Z,94446.00
2023-03-17T14:27:48.836Z,94430.00
2023-03-17T14:28:48.881Z,94420.00
2023-03-17T14:29:48.808Z,94442.00
2023-03-17T14:30:48.815Z,94442.00
2023-03-17T14:31:48.933Z,94418.00
2023-03-17T14:32:48.917Z,94426.00
2023-03-17T14:33:48.901Z,94434.00
2023-03-17T14:34:48.870Z,94420.00
2023-03-17T14:35:48.969Z,94426.00
2023-03-17T14:36:48.930Z,94422.00
2023-03-17T14:37:48.927Z,94422.00
2023-03-17T14:38:48.977Z,94426.00
2023-03-17T14:39:48.946Z,94414.00
2023-03-17T14:40:48.955Z,94412.00
2023-03-17T14:41:48.999Z,94418.00
2023-03-17T14:42:48.943Z,94414.00
2023-03-17T14:43:49.002Z,94428.00
2023-03-17T14:44:49.012Z,94422.00
2023-03-17T14:45:49.049Z,94422.00
2023-03-17T14:46:48.982Z,94418.00
2023-03-17T14:47:48.975Z,94418.00
2023-03-17T14:48:49.051Z,94420.00
2023-03-17T14:49:49.054Z,94422.00
2023-03-17T14:50:49.062Z,94414.00
2023-03-17T14:51:49.019Z,94434.00
2023-03-17T14:52:49.068Z,94420.00
2023-03-17T14:53:49.005Z,94424.00
2023-03-17T14:54:49.038Z,94418.00
2023-03-17T14:55:49.106Z,94416.00
2023-03-17T14:56:49.074Z,94414.00
2023-03-17T14:57:49.035Z,94412.00
2023-03-17T14:58:49.043Z,94418.00
2023-03-17T14:59:49.043Z,94420.00
2023-03-17T15:00:49.093Z,94416.00
2023-03-17T15:01:49.049Z,94414.00
2023-03-17T15:02:49.050Z,94406.00
2023-03-17T15:03:49.066Z,94416.00
2023-03-17T15:04:49.045Z,94402.00
2023-03-17T15:05:49.104Z,94406.00
2023-03-17T15:06:49.085Z,94408.00
2023-03-17T15:07:49.099Z,94412.00
2023-03-17T15:08:49.120Z,94416.00
2023-03-17T15:09:49.216Z,94404.00
2023-03-17T15:10:49.143Z,94399.00
2023-03-17T15:11:49.087Z,94420.00
2023-03-17T15:12:49.108Z,94406.00
2023-03-17T15:13:49.101Z,94410.00
2023-03-17T15:14:49.113Z,94401.00
2023-03-17T15:15:49.123Z,94404.00
2023-03-17T15:16:49.174Z,94402.00
2023-03-17T15:17:49.147Z,94401.00
2023-03-17T15:18:49.094Z,94406.00
2023-03-17T15:19:49.112Z,94401.00
2023-03-17T15:20:49.097Z,94397.00
2023-03-17T15:21:49.106Z,94399.00
2023-03-17T15:22:49.167Z,94395.00
2023-03-17T15:23:49.172Z,94399.00
2023-03-17T15:24:49.132Z,94412.00
2023-03-17T15:25:49.169Z,94404.00
2023-03-17T15:26:49.139Z,94408.00
2023-03-17T15:27:49.142Z,94399.00
2023-03-17T15:28:49.137Z,94404.00
2023-03-17T15:29:49.159Z,94402.00
2023-03-17T15:30:49.700Z,94399.00
2023-03-17T15:31:49.197Z,94397.00
2023-03-17T15:32:49.218Z,94397.00
2023-03-17T15:33:49.194Z,94404.00
2023-03-17T15:34:49.198Z,94401.00
2023-03-17T15:35:49.283Z,94408.00
2023-03-17T15:36:49.199Z,94404.00
2023-03-17T15:37:49.211Z,94406.00
2023-03-17T15:38:49.269Z,94402.00
2023-03-17T15:39:49.262Z,94404.00
2023-03-17T15:40:49.243Z,94401.00
2023-03-17T15:41:49.231Z,94397.00
2023-03-17T15:42:49.232Z,94401.00
2023-03-17T15:43:49.255Z,94408.00
2023-03-17T15:44:49.246Z,94402.00
2023-03-17T15:45:49.344Z,94406.00
2023-03-17T15:46:49.283Z,94397.00
2023-03-17T15:47:49.268Z,94399.00
2023-03-17T15:48:49.269Z,94399.00
2023-03-17T15:49:49.323Z,94397.00
2023-03-17T15:50:49.304Z,94408.00
2023-03-17T15:51:49.288Z,94389.00
2023-03-17T15:52:49.341Z,94399.00
2023-03-17T15:53:49.352Z,94406.00
2023-03-17T15:54:49.393Z,94397.00
2023-03-17T15:55:49.329Z,94408.00
2023-03-17T15:56:49.390Z,94410.00
2023-03-17T15:57:55.362Z,94389.00
2023-03-17T15:58:50.367Z,94418.00
2023-03-17T15:59:49.320Z,94393.00
2023-03-17T16:00:49.340Z,94393.00
2023-03-17T16:01:49.307Z,94414.00
2023-03-17T16:02:49.268Z,94410.00
2023-03-17T16:03:49.273Z,94399.00
2023-03-17T16:04:49.240Z,94404.00
2023-03-17T16:05:49.248Z,94410.00
2023-03-17T16:06:49.309Z,94401.00
2023-03-17T16:07:49.185Z,94410.00
2023-03-17T16:08:49.177Z,94395.00
2023-03-17T16:09:49.169Z,94393.00
2023-03-17T16:10:49.157Z,94406.00
2023-03-17T16:11:49.108Z,94402.00
2023-03-17T16:12:49.120Z,94408.00
2023-03-17T16:13:49.077Z,94404.00
2023-03-17T16:14:49.091Z,94410.00
2023-03-17T16:15:49.079Z,94416.00
2023-03-17T16:16:49.140Z,94414.00
2023-03-17T16:17:49.109Z,94408.00
2023-03-17T16:18:49.116Z,94410.00
2023-03-17T16:19:49.083Z,94412.00
2023-03-17T16:20:49.132Z,94406.00
2023-03-17T16:21:49.180Z,94397.00
2023-03-17T16:22:49.153Z,94412.00
2023-03-17T16:23:49.110Z,94401.00
2023-03-17T16:24:49.150Z,94406.00
2023-03-17T16:25:49.154Z,94395.00
2023-03-17T16:26:49.176Z,94401.00
2023-03-17T16:27:49.206Z,94406.00
2023-03-17T16:28:49.197Z,94412.00
2023-03-17T16:29:49.194Z,94404.00
2023-03-17T16:30:49.263Z,94406.00
2023-03-17T16:31:49.218Z,94406.00
2023-03-17T16:32:49.294Z,94406.00
2023-03-17T16:33:49.263Z,94410.00
2023-03-17T16:34:49.234Z,94412.00
2023-03-17T16:35:49.341Z,94406.00
2023-03-17T16:36:49.308Z,94412.00
2023-03-17T16:37:49.297Z,94412.00
2023-03-17T16:38:49.303Z,94416.00
2023-03-17T16:39:49.373Z,94416.00
2023-03-17T16:40:49.341Z,94424.00
2023-03-17T16:41:49.395Z,94426.00
2023-03-17T16:42:49.379Z,94414.00
2023-03-17T16:43:49.391Z,94428.00
2023-03-17T16:44:49.448Z,94426.00
2023-03-17T16:45:49.478Z,94426.00
2023-03-17T16:46:49.583Z,94432.00
2023-03-17T16:47:49.477Z,94430.00
2023-03-17T16:48:49.513Z,94448.00
2023-03-17T16:49:49.484Z,94434.00
2023-03-17T16:50:49.542Z,94442.00
2023-03-17T16:51:50.647Z,94438.00
2023-03-17T16:52:49.583Z,94444.00
2023-03-17T16:53:49.565Z,94438.00
2023-03-17T16:54:49.563Z,94442.00
2023-03-17T16:55:49.582Z,94432.00
2023-03-17T16:56:49.626Z,94448.00
2023-03-17T16:57:49.600Z,94448.00
2023-03-17T16:58:49.598Z,94436.00
2023-03-17T16:59:50.072Z,94436.00
2023-03-17T17:00:49.617Z,94442.00
2023-03-17T17:01:49.876Z,94461.00